Time;durP1;ratioP1;P1;durP2;ratioP2;P2;SDS_P1;SDS_P2;PMS_P1;PMS_P2;Temp;Humidity;BMP_temperature;BMP_pressure;BME280_temperature;BME280_humidity;BME280_pressure;Samples;Min_cycle;Max_cycle;Signal;HPM_P1;HPM_P2
2023/10/14 00:01:12;;;;;;;6.57;1.52;;;11.40;99.90;;;;;;4794905;29;20077;-58
2023/10/14 00:03:42;;;;;;;10.50;1.52;;;12.10;99.90;;;;;;4793582;29;20052;-58
2023/10/14 00:06:12;;;;;;;7.20;1.38;;;12.20;99.90;;;;;;4794592;29;20053;-58
2023/10/14 00:08:58;;;;;;;7.68;1.55;;;12.40;99.90;;;;;;4794767;29;20075;-58
2023/10/14 00:11:46;;;;;;;9.73;1.60;;;11.50;99.90;;;;;;4794585;29;20432;-58
2023/10/14 00:14:16;;;;;;;13.38;1.83;;;12.10;99.90;;;;;;4794259;29;20055;-58
2023/10/14 00:16:49;;;;;;;12.23;2.25;;;11.40;99.90;;;;;;4793509;29;20078;-58
2023/10/14 00:19:17;;;;;;;7.60;1.48;;;11.40;99.90;;;;;;4794009;29;20155;-58
2023/10/14 00:21:44;;;;;;;11.25;2.03;;;11.80;99.90;;;;;;4794533;29;20062;-57
2023/10/14 00:24:10;;;;;;;12.98;2.08;;;11.70;99.90;;;;;;4794188;29;20054;-58
2023/10/14 00:26:36;;;;;;;16.45;1.90;;;11.70;99.90;;;;;;4794226;29;20470;-58
2023/10/14 00:31:37;;;;;;;13.68;2.00;;;11.40;99.90;;;;;;4793997;29;20059;-58
2023/10/14 00:34:03;;;;;;;9.52;1.95;;;11.20;99.90;;;;;;4793905;29;20456;-58
2023/10/14 00:36:32;;;;;;;9.75;1.67;;;11.20;99.90;;;;;;4794121;29;20047;-57
2023/10/14 00:38:58;;;;;;;14.02;2.00;;;11.30;99.90;;;;;;4794381;29;20047;-58
2023/10/14 00:41:28;;;;;;;12.60;1.85;;;11.00;99.90;;;;;;4793910;29;20138;-58
2023/10/14 00:43:56;;;;;;;14.27;1.83;;;11.10;99.90;;;;;;4794287;29;20058;-58
2023/10/14 00:46:23;;;;;;;15.93;2.05;;;11.20;99.90;;;;;;4794000;29;20100;-58
2023/10/14 00:48:58;;;;;;;14.23;2.28;;;11.30;99.90;;;;;;4793735;29;20035;-58
2023/10/14 00:51:29;;;;;;;17.02;1.80;;;11.30;99.90;;;;;;4792369;29;20116;-58
2023/10/14 00:54:01;;;;;;;11.77;1.83;;;11.30;99.90;;;;;;4793714;29;20047;-58
2023/10/14 00:56:27;;;;;;;9.80;1.98;;;11.30;99.90;;;;;;4794105;29;20137;-57
2023/10/14 00:58:58;;;;;;;11.77;1.75;;;11.10;99.90;;;;;;4792442;29;20047;-58
2023/10/14 01:04:18;;;;;;;11.25;1.85;;;11.10;99.90;;;;;;4793931;29;20051;-58
2023/10/14 01:09:22;;;;;;;12.93;1.77;;;11.10;99.90;;;;;;4793889;29;20059;-57
2023/10/14 01:11:48;;;;;;;11.98;2.00;;;11.10;99.90;;;;;;4793591;29;20497;-57
2023/10/14 01:14:17;;;;;;;15.15;2.00;;;11.10;99.90;;;;;;4798755;29;20076;-57
2023/10/14 01:16:46;;;;;;;10.02;1.50;;;11.00;99.90;;;;;;4811899;29;20334;-58
2023/10/14 01:19:15;;;;;;;8.20;1.48;;;11.00;99.90;;;;;;4811570;29;20436;-58
2023/10/14 01:21:43;;;;;;;14.10;2.22;;;10.90;99.90;;;;;;4811908;29;20062;-58
2023/10/14 01:24:16;;;;;;;13.13;1.85;;;10.80;99.90;;;;;;4811283;29;20155;-58
2023/10/14 01:26:54;;;;;;;10.45;1.55;;;10.80;99.90;;;;;;4811430;29;20098;-57
2023/10/14 01:29:30;;;;;;;9.23;1.63;;;10.80;99.90;;;;;;4811808;29;20400;-56
2023/10/14 01:32:23;;;;;;;11.85;1.80;;;10.90;99.90;;;;;;4811565;29;20058;-58
2023/10/14 01:34:55;;;;;;;11.30;1.20;;;10.90;99.90;;;;;;4796131;29;20043;-57
2023/10/14 01:37:21;;;;;;;10.90;2.03;;;11.00;99.90;;;;;;4792084;30;20108;-57
2023/10/14 01:39:56;;;;;;;15.32;2.42;;;10.80;99.90;;;;;;4792355;29;20053;-57
2023/10/14 01:42:29;;;;;;;10.13;1.60;;;10.80;99.90;;;;;;4793567;29;20075;-58
2023/10/14 01:44:55;;;;;;;13.75;2.03;;;10.70;99.90;;;;;;4791943;30;20051;-55
2023/10/14 01:47:21;;;;;;;14.30;2.03;;;10.60;99.90;;;;;;4792024;29;20163;-57
2023/10/14 01:49:47;;;;;;;11.27;1.58;;;10.50;99.90;;;;;;4793042;29;20063;-57
2023/10/14 01:52:15;;;;;;;14.02;2.47;;;10.40;99.90;;;;;;4793716;29;20088;-58
2023/10/14 01:54:41;;;;;;;9.65;2.05;;;10.40;99.90;;;;;;4793289;29;20058;-57
2023/10/14 01:57:15;;;;;;;10.90;2.85;;;10.30;99.90;;;;;;4793140;29;20416;-57
2023/10/14 01:59:41;;;;;;;9.73;1.70;;;10.30;99.90;;;;;;4791867;30;20131;-57
2023/10/14 02:02:09;;;;;;;12.00;2.22;;;10.20;99.90;;;;;;4792923;29;20051;-57
2023/10/14 02:04:36;;;;;;;9.45;1.45;;;10.30;99.90;;;;;;4795925;29;20089;-58
2023/10/14 02:07:18;;;;;;;10.32;1.60;;;10.20;99.90;;;;;;4796160;29;20059;-57
2023/10/14 02:09:43;;;;;;;12.10;1.90;;;10.20;99.90;;;;;;4796493;29;20458;-57
2023/10/14 02:12:11;;;;;;;8.73;1.80;;;10.20;99.90;;;;;;4796693;29;20066;-57
2023/10/14 02:14:44;;;;;;;11.85;1.48;;;10.30;99.90;;;;;;4796532;29;20043;-57
2023/10/14 02:17:10;;;;;;;9.70;1.50;;;10.20;99.90;;;;;;4795219;29;20055;-57
2023/10/14 02:19:36;;;;;;;8.70;1.52;;;10.30;99.90;;;;;;4796373;29;20294;-57
2023/10/14 02:22:09;;;;;;;9.00;1.90;;;10.30;99.90;;;;;;4796715;29;20101;-58
2023/10/14 02:24:36;;;;;;;9.02;2.03;;;10.30;99.90;;;;;;4795972;29;20086;-57
2023/10/14 02:27:21;;;;;;;10.68;1.42;;;10.30;99.90;;;;;;4796288;29;20051;-58
2023/10/14 02:29:46;;;;;;;11.80;2.30;;;10.20;99.90;;;;;;4796403;29;20083;-58
2023/10/14 02:32:13;;;;;;;13.07;1.95;;;10.10;99.90;;;;;;4795952;29;20062;-57
2023/10/14 02:34:45;;;;;;;9.25;1.55;;;10.20;99.90;;;;;;4796203;30;20046;-59
2023/10/14 02:37:13;;;;;;;10.90;2.25;;;10.20;99.90;;;;;;4795953;29;20069;-57
2023/10/14 02:39:42;;;;;;;10.65;1.98;;;10.10;99.90;;;;;;4795134;30;20048;-58
2023/10/14 02:42:08;;;;;;;7.88;1.55;;;10.10;99.90;;;;;;4796364;29;20051;-57
2023/10/14 02:44:51;;;;;;;11.82;2.67;;;10.00;99.90;;;;;;4796000;29;20043;-57
2023/10/14 02:47:21;;;;;;;13.23;1.67;;;10.00;99.90;;;;;;4794764;30;20095;-58
2023/10/14 02:49:54;;;;;;;8.75;1.70;;;10.10;99.90;;;;;;4795723;29;20073;-57
2023/10/14 02:52:29;;;;;;;13.57;1.70;;;10.10;99.90;;;;;;4794806;30;20047;-57
2023/10/14 02:54:58;;;;;;;11.18;3.95;;;10.20;99.90;;;;;;4795891;29;20051;-57
2023/10/14 02:57:26;;;;;;;9.82;1.48;;;10.20;99.90;;;;;;4795759;29;20128;-58
2023/10/14 02:59:55;;;;;;;13.55;2.00;;;10.30;99.90;;;;;;4795697;29;20131;-58
2023/10/14 03:07:25;;;;;;;11.25;1.77;;;10.30;99.90;;;;;;4795394;29;20074;-57
2023/10/14 03:09:52;;;;;;;20.08;1.98;;;10.30;99.90;;;;;;4795590;29;20058;-57
2023/10/14 03:12:21;;;;;;;9.52;1.90;;;10.40;99.90;;;;;;4795399;29;20054;-58
2023/10/14 03:14:52;;;;;;;13.63;2.15;;;10.40;99.90;;;;;;4795417;29;20078;-56
2023/10/14 03:17:38;;;;;;;15.30;1.75;;;10.30;99.90;;;;;;4795633;29;20539;-57
2023/10/14 03:22:58;;;;;;;12.23;3.05;;;10.40;99.90;;;;;;4795050;29;20089;-57
2023/10/14 03:25:24;;;;;;;9.82;1.73;;;10.30;99.90;;;;;;4795054;29;20406;-57
2023/10/14 03:27:58;;;;;;;14.50;1.80;;;10.40;99.90;;;;;;4794876;29;20055;-57
2023/10/14 03:30:23;;;;;;;10.20;1.45;;;10.40;99.90;;;;;;4795509;29;20769;-57
2023/10/14 03:32:49;;;;;;;12.20;1.60;;;10.30;94.70;;;;;;4794997;29;20047;-57
2023/10/14 03:35:20;;;;;;;11.25;1.83;;;10.20;94.50;;;;;;4795199;29;20402;-57
2023/10/14 03:37:53;;;;;;;10.13;1.40;;;10.30;93.10;;;;;;4793968;29;20047;-57
2023/10/14 03:43:15;;;;;;;12.82;1.75;;;10.30;75.80;;;;;;4795229;29;20048;-57
2023/10/14 03:45:56;;;;;;;9.02;1.50;;;10.30;79.00;;;;;;4793682;29;20110;-58
2023/10/14 03:48:36;;;;;;;8.77;1.60;;;10.30;81.40;;;;;;4793705;30;20114;-58
2023/10/14 03:51:03;;;;;;;11.15;1.65;;;10.30;79.00;;;;;;4795093;29;20043;-57
2023/10/14 03:53:34;;;;;;;11.77;1.60;;;10.30;77.60;;;;;;4794588;29;20055;-57
2023/10/14 03:56:01;;;;;;;14.77;1.80;;;10.40;80.20;;;;;;4794819;29;20075;-58
2023/10/14 03:58:33;;;;;;;14.68;1.80;;;10.40;81.00;;;;;;4794533;29;20055;-57
2023/10/14 04:01:02;;;;;;;15.00;1.88;;;10.50;84.00;;;;;;4795025;29;20104;-57
2023/10/14 04:03:40;;;;;;;10.02;1.60;;;10.50;79.30;;;;;;4795037;29;20055;-58
2023/10/14 04:06:09;;;;;;;9.02;1.75;;;10.60;64.80;;;;;;4794713;29;20119;-57
2023/10/14 04:08:50;;;;;;;7.03;1.60;;;10.90;48.20;;;;;;4794603;29;20073;-57
2023/10/14 04:11:25;;;;;;;12.27;2.35;;;10.80;50.00;;;;;;4794380;29;20108;-57
2023/10/14 04:16:27;;;;;;;13.18;1.70;;;10.70;71.30;;;;;;4794573;29;20063;-57
2023/10/14 04:18:59;;;;;;;12.35;1.65;;;10.80;79.80;;;;;;4795481;29;20055;-57
2023/10/14 04:21:35;;;;;;;14.70;1.75;;;10.80;93.10;;;;;;4812401;29;20082;-56
2023/10/14 04:26:48;;;;;;;12.68;1.45;;;10.70;94.90;;;;;;4811511;29;20062;-58
2023/10/14 04:29:34;;;;;;;14.48;1.48;;;10.60;99.90;;;;;;4812456;29;20054;-57
2023/10/14 04:32:47;;;;;;;10.40;1.77;;;10.60;99.90;;;;;;4812185;29;20501;-58
2023/10/14 04:34:49;;;;;;;9.38;1.55;;;10.50;99.90;;;;;;4793122;30;20047;-58
2023/10/14 04:37:20;;;;;;;12.90;1.70;;;10.50;99.90;;;;;;4793982;29;20059;-57
2023/10/14 04:39:46;;;;;;;13.40;2.10;;;10.40;99.90;;;;;;4793753;29;20081;-57
2023/10/14 04:44:54;;;;;;;13.88;3.00;;;10.40;99.90;;;;;;4793967;29;20043;-58
2023/10/14 04:47:37;;;;;;;11.90;1.75;;;10.40;97.40;;;;;;4794231;29;20047;-59
2023/10/14 04:50:13;;;;;;;13.20;1.83;;;10.40;92.90;;;;;;4793611;29;20071;-58
2023/10/14 04:52:41;;;;;;;12.40;1.67;;;10.50;91.60;;;;;;4792461;29;20120;-58
2023/10/14 04:55:43;;;;;;;17.10;3.83;;;10.50;79.10;;;;;;4793906;29;20062;-58
2023/10/14 05:00:42;;;;;;;10.32;2.00;;;10.60;44.70;;;;;;4794225;29;19932;-57
2023/10/14 05:03:12;;;;;;;16.73;2.17;;;10.60;37.50;;;;;;4793662;29;20579;-57
2023/10/14 05:05:41;;;;;;;12.32;2.22;;;10.60;37.30;;;;;;4792528;30;20059;-57
2023/10/14 05:08:12;;;;;;;14.55;1.95;;;10.60;27.20;;;;;;4793782;29;20054;-58
2023/10/14 05:10:42;;;;;;;14.93;2.35;;;10.70;19.70;;;;;;4792283;30;20055;-58
2023/10/14 05:13:12;;;;;;;11.60;1.90;;;10.60;28.00;;;;;;4777522;30;20054;-58
2023/10/14 05:15:40;;;;;;;10.98;1.60;;;10.50;20.90;;;;;;4792392;29;20047;-57
2023/10/14 05:18:07;;;;;;;9.27;1.95;;;10.60;21.20;;;;;;4793799;29;20056;-57
2023/10/14 05:23:19;;;;;;;13.15;1.80;;;10.50;25.30;;;;;;4792739;29;20077;-58
2023/10/14 05:25:48;;;;;;;11.85;1.95;;;10.60;20.40;;;;;;4793451;29;20063;-57
2023/10/14 05:28:16;;;;;;;16.83;2.03;;;10.60;27.40;;;;;;4793172;29;20194;-58
2023/10/14 05:30:46;;;;;;;15.38;1.83;;;10.60;21.90;;;;;;4793907;29;20440;-58
2023/10/14 05:33:14;;;;;;;14.07;2.45;;;10.60;24.00;;;;;;4793608;29;20063;-57
2023/10/14 05:35:44;;;;;;;11.85;2.20;;;10.60;27.90;;;;;;4793333;29;20051;-57
2023/10/14 05:38:10;;;;;;;13.25;2.33;;;10.50;30.50;;;;;;4791877;29;20608;-57
2023/10/14 05:40:38;;;;;;;12.55;2.17;;;10.60;30.20;;;;;;4793379;29;20052;-57
2023/10/14 05:43:06;;;;;;;16.05;2.50;;;10.60;32.30;;;;;;4793928;29;20049;-57
2023/10/14 05:45:36;;;;;;;15.18;2.67;;;10.50;32.40;;;;;;4792753;30;20090;-57
2023/10/14 05:48:03;;;;;;;13.73;2.58;;;10.60;31.60;;;;;;4793906;29;20055;-58
2023/10/14 05:50:30;;;;;;;11.20;2.20;;;10.50;31.70;;;;;;4793056;29;20055;-57
2023/10/14 05:52:56;;;;;;;14.23;2.28;;;10.50;24.40;;;;;;4792328;29;20156;-57
2023/10/14 05:55:21;;;;;;;12.48;2.53;;;10.40;28.20;;;;;;4792941;29;20075;-58
2023/10/14 05:57:48;;;;;;;12.32;2.00;;;10.40;31.70;;;;;;4793037;29;20047;-57
2023/10/14 06:00:25;;;;;;;11.95;2.15;;;10.30;35.40;;;;;;4792151;30;20059;-57
2023/10/14 06:02:52;;;;;;;11.23;1.60;;;10.20;28.30;;;;;;4791818;30;20055;-58
2023/10/14 06:05:20;;;;;;;13.70;2.03;;;10.10;31.30;;;;;;4791660;30;20051;-58
2023/10/14 06:07:46;;;;;;;16.98;2.92;;;10.10;28.20;;;;;;4792153;29;20048;-57
2023/10/14 06:10:14;;;;;;;12.18;1.75;;;10.00;31.10;;;;;;4792112;29;20062;-58
2023/10/14 06:12:44;;;;;;;16.65;2.35;;;10.00;32.20;;;;;;4792202;29;20047;-57
2023/10/14 06:15:10;;;;;;;14.43;2.13;;;10.00;32.30;;;;;;4790072;30;20055;-57
2023/10/14 06:17:38;;;;;;;13.07;2.22;;;9.90;28.40;;;;;;4792097;29;20066;-57
2023/10/14 06:20:07;;;;;;;10.23;1.63;;;10.00;29.70;;;;;;4789594;30;20067;-57
2023/10/14 06:22:33;;;;;;;15.88;2.08;;;9.90;30.70;;;;;;4792745;29;20054;-57
2023/10/14 06:25:00;;;;;;;9.85;1.50;;;9.90;29.60;;;;;;4791186;29;20055;-57
2023/10/14 06:27:26;;;;;;;14.40;2.00;;;9.90;37.30;;;;;;4790725;29;20412;-57
2023/10/14 06:29:55;;;;;;;13.48;2.17;;;10.00;37.30;;;;;;4792732;29;20051;-57
2023/10/14 06:32:21;;;;;;;8.63;1.33;;;10.00;30.90;;;;;;4792157;29;20086;-58
2023/10/14 06:34:49;;;;;;;16.48;2.05;;;10.00;32.00;;;;;;4792035;29;20043;-58
2023/10/14 06:37:14;;;;;;;10.93;1.95;;;9.90;33.50;;;;;;4789929;30;20051;-57
2023/10/14 06:39:41;;;;;;;14.40;1.70;;;10.00;38.20;;;;;;4792224;29;20090;-58
2023/10/14 06:42:07;;;;;;;9.25;1.55;;;10.00;35.60;;;;;;4791544;30;20051;-58
2023/10/14 06:44:33;;;;;;;13.65;2.85;;;10.10;36.80;;;;;;4792086;29;20052;-57
2023/10/14 06:46:59;;;;;;;11.40;2.08;;;10.10;38.00;;;;;;4802893;29;20084;-57
2023/10/14 06:49:32;;;;;;;13.55;2.70;;;10.20;41.30;;;;;;4809619;29;20081;-57
2023/10/14 06:51:58;;;;;;;9.68;1.45;;;10.20;41.10;;;;;;4810265;29;20080;-57
2023/10/14 06:54:30;;;;;;;14.05;2.38;;;10.30;44.90;;;;;;4810219;29;20579;-58
2023/10/14 06:56:56;;;;;;;11.75;1.67;;;10.30;50.20;;;;;;4808781;29;20069;-57
2023/10/14 06:59:22;;;;;;;12.25;3.20;;;10.30;47.30;;;;;;4810222;29;20051;-58
2023/10/14 07:01:48;;;;;;;14.35;2.08;;;10.40;45.80;;;;;;4809271;29;20239;-57
2023/10/14 07:04:16;;;;;;;12.77;2.08;;;10.40;47.00;;;;;;4809081;29;20544;-57
2023/10/14 07:06:47;;;;;;;15.27;2.65;;;10.40;51.50;;;;;;4808243;29;20075;-57
2023/10/14 07:09:23;;;;;;;11.00;1.65;;;10.50;53.80;;;;;;4810028;29;20133;-58
2023/10/14 07:11:49;;;;;;;13.13;2.47;;;10.60;60.00;;;;;;4809253;29;20070;-57
2023/10/14 07:14:18;;;;;;;15.00;2.55;;;10.70;55.70;;;;;;4808336;29;20359;-57
2023/10/14 07:16:45;;;;;;;12.25;1.75;;;10.70;51.10;;;;;;4809628;29;20116;-57
2023/10/14 07:19:11;;;;;;;13.18;2.00;;;10.90;43.60;;;;;;4809461;29;20057;-57
2023/10/14 07:21:36;;;;;;;12.05;2.33;;;11.00;37.20;;;;;;4810091;29;20524;-57
2023/10/14 07:24:08;;;;;;;11.80;1.90;;;11.10;32.10;;;;;;4809454;29;20057;-57
2023/10/14 07:26:36;;;;;;;13.25;2.10;;;11.20;25.60;;;;;;4808967;29;20058;-57
2023/10/14 07:29:05;;;;;;;15.27;2.05;;;11.40;14.20;;;;;;4810041;29;20044;-58
2023/10/14 07:31:32;;;;;;;10.98;1.73;;;11.70;1.00;;;;;;4809431;29;20061;-56
2023/10/14 07:34:08;;;;;;;13.88;2.22;;;11.80;1.00;;;;;;4800059;29;20070;-57
2023/10/14 07:36:34;;;;;;;12.68;1.77;;;11.90;1.00;;;;;;4791185;29;20717;-57
2023/10/14 07:41:45;;;;;;;10.07;1.67;;;11.70;1.00;;;;;;4791778;29;20081;-56
2023/10/14 07:44:10;;;;;;;12.50;2.05;;;11.60;1.00;;;;;;4791225;29;20055;-57
2023/10/14 07:46:36;;;;;;;12.73;1.70;;;11.60;1.00;;;;;;4791403;29;20070;-58
2023/10/14 07:49:03;;;;;;;12.55;1.63;;;11.60;2.40;;;;;;4789847;30;20051;-58
2023/10/14 07:51:28;;;;;;;15.40;2.55;;;11.70;1.00;;;;;;4790645;29;20078;-57
2023/10/14 07:53:55;;;;;;;12.07;1.90;;;11.80;1.00;;;;;;4790933;30;20534;-57
2023/10/14 07:56:23;;;;;;;10.02;1.67;;;11.90;1.00;;;;;;4791495;29;20105;-57
2023/10/14 07:58:48;;;;;;;12.13;2.97;;;11.90;1.00;;;;;;4791232;29;20500;-58
2023/10/14 08:01:16;;;;;;;9.50;1.77;;;12.00;1.00;;;;;;4790071;29;20061;-57
2023/10/14 08:03:41;;;;;;;12.05;1.88;;;12.00;1.00;;;;;;4789617;30;20051;-58
2023/10/14 08:06:10;;;;;;;12.25;1.70;;;12.00;1.00;;;;;;4789492;30;20055;-57
2023/10/14 08:08:59;;;;;;;10.40;2.00;;;12.00;1.00;;;;;;4791231;29;20084;-57
2023/10/14 08:11:22;;;;;;;16.30;2.03;;;12.00;1.00;;;;;;4790673;30;20059;-57
2023/10/14 08:13:48;;;;;;;8.48;1.50;;;12.00;1.00;;;;;;4791321;29;20063;-57
2023/10/14 08:16:15;;;;;;;11.38;1.90;;;12.00;1.00;;;;;;4791944;29;20047;-57
2023/10/14 08:18:41;;;;;;;12.55;2.13;;;12.10;1.00;;;;;;4791123;29;20111;-57
2023/10/14 08:21:09;;;;;;;13.95;1.83;;;12.20;1.00;;;;;;4791578;29;20083;-57
2023/10/14 08:23:35;;;;;;;9.02;1.60;;;12.30;1.00;;;;;;4790913;29;20089;-57
2023/10/14 08:26:02;;;;;;;12.30;2.33;;;12.30;1.00;;;;;;4790020;30;20051;-57
2023/10/14 08:28:28;;;;;;;9.90;2.05;;;12.40;1.00;;;;;;4791187;29;20103;-57
2023/10/14 08:30:57;;;;;;;9.95;1.60;;;12.50;1.00;;;;;;4791223;29;20059;-57
2023/10/14 08:33:24;;;;;;;8.35;1.67;;;12.50;1.00;;;;;;4791289;29;20083;-57
2023/10/14 08:35:51;;;;;;;8.73;2.03;;;12.60;1.00;;;;;;4791292;29;20059;-58
2023/10/14 08:38:27;;;;;;;9.70;1.52;;;12.60;1.00;;;;;;4790343;29;20071;-57
2023/10/14 08:40:54;;;;;;;11.05;2.13;;;12.60;1.00;;;;;;4792932;29;20039;-57
2023/10/14 08:43:21;;;;;;;8.95;1.52;;;12.70;1.00;;;;;;4793051;30;20055;-57
2023/10/14 08:45:48;;;;;;;12.40;1.55;;;12.80;1.00;;;;;;4793645;29;20087;-56
2023/10/14 08:48:18;;;;;;;12.80;1.80;;;12.80;1.00;;;;;;4793915;29;20062;-57
2023/10/14 08:50:49;;;;;;;14.38;2.85;;;12.90;1.00;;;;;;4794207;29;20051;-57
2023/10/14 08:53:16;;;;;;;10.10;1.77;;;12.90;1.00;;;;;;4793843;29;20046;-57
2023/10/14 08:55:46;;;;;;;11.68;2.03;;;12.90;1.00;;;;;;4793938;29;20047;-58
2023/10/14 08:58:15;;;;;;;12.10;2.92;;;13.00;1.00;;;;;;4793460;29;20496;-58
2023/10/14 09:00:44;;;;;;;13.40;1.90;;;13.00;1.00;;;;;;4794334;29;20047;-58
2023/10/14 09:03:11;;;;;;;7.68;1.80;;;13.00;1.00;;;;;;4793893;29;20047;-57
2023/10/14 09:05:41;;;;;;;13.95;1.90;;;13.10;1.00;;;;;;4793628;29;20047;-57
2023/10/14 09:08:19;;;;;;;13.40;1.80;;;13.30;1.00;;;;;;4793826;29;20055;-57
2023/10/14 09:10:45;;;;;;;8.45;1.70;;;13.50;1.00;;;;;;4793418;29;20075;-57
2023/10/14 09:13:22;;;;;;;12.55;1.75;;;13.00;1.00;;;;;;4793793;29;20059;-57
2023/10/14 09:15:49;;;;;;;9.48;1.58;;;12.50;1.00;;;;;;4793743;29;20055;-57
2023/10/14 09:18:17;;;;;;;12.20;1.45;;;12.30;1.00;;;;;;4793656;29;20098;-57
2023/10/14 09:20:43;;;;;;;8.18;1.35;;;12.10;1.00;;;;;;4793883;29;20043;-57
2023/10/14 09:23:34;;;;;;;9.93;1.70;;;12.10;1.00;;;;;;4793320;29;20047;-57
2023/10/14 09:26:01;;;;;;;8.27;2.20;;;12.00;1.00;;;;;;4793587;29;20047;-57
2023/10/14 09:28:29;;;;;;;11.23;1.92;;;12.00;1.00;;;;;;4792893;29;20070;-58
2023/10/14 09:30:57;;;;;;;9.70;1.63;;;12.10;1.00;;;;;;4793286;29;20051;-57
2023/10/14 09:33:31;;;;;;;7.72;1.40;;;12.40;1.00;;;;;;4793269;29;20264;-57
2023/10/14 09:36:15;;;;;;;13.88;1.52;;;12.50;1.00;;;;;;4793333;29;20080;-57
2023/10/14 09:38:42;;;;;;;12.18;2.85;;;12.80;1.00;;;;;;4793727;29;20111;-56
2023/10/14 09:41:10;;;;;;;11.07;1.85;;;13.00;1.00;;;;;;4793248;29;20075;-57
2023/10/14 09:43:42;;;;;;;8.65;1.58;;;13.00;1.00;;;;;;4792976;29;20039;-57
2023/10/14 09:46:10;;;;;;;15.40;2.42;;;12.70;1.00;;;;;;4793163;29;20055;-57
2023/10/14 09:48:37;;;;;;;7.95;1.20;;;12.70;1.00;;;;;;4793103;29;20047;-57
2023/10/14 09:51:06;;;;;;;8.55;1.98;;;12.50;1.00;;;;;;4793222;29;20104;-58
2023/10/14 09:53:36;;;;;;;10.45;1.58;;;12.60;1.00;;;;;;4793170;29;20054;-57
2023/10/14 09:56:04;;;;;;;9.90;1.48;;;12.50;1.00;;;;;;4793201;29;20135;-57
2023/10/14 09:58:34;;;;;;;7.88;1.70;;;12.40;1.00;;;;;;4793119;29;20391;-57
2023/10/14 10:01:02;;;;;;;12.98;1.75;;;12.00;1.00;;;;;;4793140;29;20493;-57
2023/10/14 10:03:33;;;;;;;6.85;1.30;;;11.60;1.00;;;;;;4793503;29;20124;-57
2023/10/14 10:06:10;;;;;;;8.57;1.50;;;11.50;1.00;;;;;;4793331;29;20062;-57
2023/10/14 10:08:39;;;;;;;9.30;1.92;;;11.50;1.00;;;;;;4793168;29;20055;-58
2023/10/14 10:11:06;;;;;;;10.60;1.83;;;11.40;1.00;;;;;;4792475;29;20051;-57
2023/10/14 10:13:32;;;;;;;9.38;1.58;;;11.40;1.00;;;;;;4793288;29;20044;-57
2023/10/14 10:16:04;;;;;;;13.77;2.88;;;11.70;1.00;;;;;;4793339;29;20047;-58
2023/10/14 10:18:58;;;;;;;6.68;1.13;;;11.90;1.00;;;;;;4792991;29;20076;-57
2023/10/14 10:21:34;;;;;;;7.13;1.20;;;12.20;1.00;;;;;;4792888;29;20047;-57
2023/10/14 10:24:24;;;;;;;9.13;1.35;;;12.40;1.00;;;;;;4793408;29;20165;-57
2023/10/14 10:27:05;;;;;;;7.45;1.23;;;12.50;1.00;;;;;;4792784;30;20599;-57
2023/10/14 10:29:34;;;;;;;7.13;1.30;;;12.70;1.00;;;;;;4796258;29;20059;-56
2023/10/14 10:32:16;;;;;;;9.18;2.25;;;12.80;1.00;;;;;;4796012;29;20062;-57
2023/10/14 10:35:07;;;;;;;6.15;1.48;;;12.90;1.00;;;;;;4796793;29;20083;-57
2023/10/14 10:37:42;;;;;;;8.90;1.40;;;13.00;1.00;;;;;;4796447;29;20055;-57
2023/10/14 10:40:10;;;;;;;12.50;2.28;;;13.10;1.00;;;;;;4795787;29;20060;-57
2023/10/14 10:43:09;;;;;;;10.93;2.47;;;13.10;1.00;;;;;;4796113;29;20116;-58
2023/10/14 10:45:40;;;;;;;8.57;1.38;;;13.30;1.00;;;;;;4795666;30;20084;-57
2023/10/14 10:48:09;;;;;;;8.02;1.98;;;13.40;1.00;;;;;;4796102;29;20051;-57
2023/10/14 10:50:38;;;;;;;8.63;1.40;;;13.10;1.00;;;;;;4795827;29;20055;-56
2023/10/14 10:53:07;;;;;;;13.25;1.73;;;12.80;1.00;;;;;;4795381;29;20047;-57
2023/10/14 10:55:36;;;;;;;10.20;2.35;;;12.60;1.00;;;;;;4794385;29;20059;-57
2023/10/14 10:58:03;;;;;;;11.77;1.77;;;12.50;1.00;;;;;;4795693;29;20078;-57
2023/10/14 11:00:32;;;;;;;11.27;1.88;;;12.50;1.00;;;;;;4796270;29;20051;-58
2023/10/14 11:03:02;;;;;;;11.73;2.08;;;12.40;1.00;;;;;;4795751;29;20088;-57
2023/10/14 11:05:33;;;;;;;12.65;2.60;;;12.60;1.00;;;;;;4795377;29;20063;-57
2023/10/14 11:08:00;;;;;;;14.48;2.15;;;12.90;1.00;;;;;;4795809;29;20073;-57
2023/10/14 11:10:27;;;;;;;14.40;2.25;;;13.20;1.00;;;;;;4793994;30;20086;-57
2023/10/14 11:12:57;;;;;;;15.30;1.95;;;13.30;1.00;;;;;;4795586;29;20051;-57
2023/10/14 11:15:25;;;;;;;10.77;2.05;;;13.50;1.00;;;;;;4795378;29;20056;-57
2023/10/14 11:17:58;;;;;;;8.45;2.70;;;12.50;1.00;;;;;;4795678;29;20079;-56
2023/10/14 11:20:45;;;;;;;8.73;1.67;;;11.30;1.00;;;;;;4795611;29;20133;-57
2023/10/14 11:23:11;;;;;;;5.85;1.25;;;11.10;1.00;;;;;;4795048;29;20081;-57
2023/10/14 11:25:49;;;;;;;9.20;1.73;;;11.30;1.00;;;;;;4795201;29;20055;-57
2023/10/14 11:28:15;;;;;;;14.60;2.08;;;11.60;1.00;;;;;;4794853;29;20536;-57
2023/10/14 11:30:44;;;;;;;11.10;1.83;;;11.90;1.00;;;;;;4795393;29;20067;-56
2023/10/14 11:33:11;;;;;;;12.40;1.52;;;12.20;1.00;;;;;;4795417;29;20051;-57
2023/10/14 11:35:37;;;;;;;13.95;1.50;;;12.30;1.00;;;;;;4794901;29;20075;-57
2023/10/14 11:38:07;;;;;;;10.82;2.22;;;12.50;1.00;;;;;;4794851;29;20520;-58
2023/10/14 11:40:37;;;;;;;16.10;2.17;;;12.70;1.00;;;;;;4794605;29;20042;-57
2023/10/14 11:43:05;;;;;;;13.30;2.22;;;12.60;1.00;;;;;;4794634;29;20047;-57
2023/10/14 11:45:32;;;;;;;9.27;2.50;;;12.40;1.00;;;;;;4794148;29;20054;-57
2023/10/14 11:48:00;;;;;;;13.65;2.75;;;12.40;1.00;;;;;;4794381;29;20047;-57
2023/10/14 11:50:26;;;;;;;12.98;2.40;;;12.40;1.00;;;;;;4793859;29;20047;-57
2023/10/14 11:52:53;;;;;;;12.75;2.20;;;12.40;1.00;;;;;;4792787;30;20056;-56
2023/10/14 11:55:20;;;;;;;11.52;2.08;;;12.30;1.00;;;;;;4793534;29;20055;-56
2023/10/14 11:57:47;;;;;;;9.18;1.98;;;12.10;1.00;;;;;;4793844;29;20059;-57
2023/10/14 12:00:17;;;;;;;14.18;2.38;;;12.20;1.00;;;;;;4799218;29;20051;-57
2023/10/14 12:02:50;;;;;;;13.07;2.65;;;12.40;1.00;;;;;;4812415;29;20046;-57
2023/10/14 12:05:16;;;;;;;12.60;2.20;;;12.60;1.00;;;;;;4812225;29;20042;-57
2023/10/14 12:07:43;;;;;;;13.38;1.95;;;12.70;1.00;;;;;;4811226;29;20508;-57
2023/10/14 12:10:10;;;;;;;11.75;2.25;;;12.80;1.00;;;;;;4812179;29;20051;-57
2023/10/14 12:12:38;;;;;;;10.90;1.90;;;12.90;1.00;;;;;;4812472;29;20629;-57
2023/10/14 12:15:05;;;;;;;11.68;2.53;;;12.90;1.00;;;;;;4810617;29;20055;-57
2023/10/14 12:17:34;;;;;;;12.15;1.92;;;13.00;1.00;;;;;;4812919;29;20055;-57
2023/10/14 12:20:04;;;;;;;8.75;1.85;;;13.10;1.00;;;;;;4812161;29;20038;-57
2023/10/14 12:22:31;;;;;;;8.27;1.40;;;13.00;1.00;;;;;;4809699;29;20046;-57
2023/10/14 12:24:56;;;;;;;10.27;2.15;;;13.10;1.00;;;;;;4804755;29;20125;-57
2023/10/14 12:27:25;;;;;;;8.60;1.40;;;13.00;1.00;;;;;;4794560;29;20087;-57
2023/10/14 12:29:51;;;;;;;8.68;1.90;;;13.00;1.00;;;;;;4793438;30;20055;-57
2023/10/14 12:32:17;;;;;;;10.05;1.55;;;13.00;99.90;;;;;;4801639;29;20054;-57
2023/10/14 12:34:48;;;;;;;7.78;1.65;;;13.00;99.90;;;;;;4795100;29;20055;-57
2023/10/14 12:37:18;;;;;;;7.88;1.65;;;12.90;99.90;;;;;;4812183;29;20086;-57
2023/10/14 12:39:55;;;;;;;10.38;2.08;;;13.00;1.00;;;;;;4796412;29;20112;-57
2023/10/14 12:42:44;;;;;;;10.32;1.63;;;13.00;1.00;;;;;;4776142;30;20043;-57
2023/10/14 12:45:12;;;;;;;9.40;1.70;;;13.00;1.00;;;;;;4795397;29;20070;-57
2023/10/14 12:47:44;;;;;;;11.52;2.33;;;13.00;1.00;;;;;;4811818;29;20058;-57
2023/10/14 12:50:10;;;;;;;10.52;1.98;;;13.10;1.00;;;;;;4812076;29;20050;-57
2023/10/14 12:52:38;;;;;;;13.70;2.60;;;13.20;1.00;;;;;;4811737;29;20047;-57
2023/10/14 12:55:13;;;;;;;10.95;2.17;;;13.00;1.00;;;;;;4811880;29;20055;-57
2023/10/14 12:57:40;;;;;;;8.00;1.77;;;12.80;1.00;;;;;;4811341;29;20107;-57
2023/10/14 13:00:11;;;;;;;11.07;1.88;;;12.60;1.00;;;;;;4812112;29;20058;-57
2023/10/14 13:02:39;;;;;;;9.45;1.98;;;12.40;1.00;;;;;;4811604;29;20089;-57
2023/10/14 13:05:05;;;;;;;8.00;1.48;;;12.40;1.00;;;;;;4812091;29;20090;-57
2023/10/14 13:07:31;;;;;;;6.60;1.65;;;12.50;1.00;;;;;;4811979;29;20042;-57
2023/10/14 13:09:56;;;;;;;12.07;1.83;;;12.50;1.00;;;;;;4811643;29;20047;-57
2023/10/14 13:12:22;;;;;;;13.57;1.70;;;12.40;1.00;;;;;;4811331;29;20047;-57
2023/10/14 13:14:48;;;;;;;11.75;2.08;;;12.40;1.00;;;;;;4811499;29;20042;-57
2023/10/14 13:17:14;;;;;;;8.52;1.70;;;12.20;1.00;;;;;;4811822;29;20059;-57
2023/10/14 13:19:41;;;;;;;10.32;1.73;;;12.40;1.00;;;;;;4808095;29;20099;-57
2023/10/14 13:22:11;;;;;;;11.43;2.38;;;12.60;1.00;;;;;;4807076;29;20062;-57
2023/10/14 13:24:40;;;;;;;11.05;1.88;;;12.60;1.00;;;;;;4805804;29;20077;-57
2023/10/14 13:27:06;;;;;;;13.65;1.92;;;12.70;1.00;;;;;;4790774;29;20055;-57
2023/10/14 13:29:32;;;;;;;11.73;1.90;;;12.70;1.00;;;;;;4806646;29;20047;-57
2023/10/14 13:31:59;;;;;;;13.10;2.55;;;12.60;1.00;;;;;;4807326;29;20061;-57
2023/10/14 13:34:25;;;;;;;9.20;1.95;;;12.50;1.00;;;;;;4794245;29;20494;-57